sensor_id;sensor_type;location;lat;lon;timestamp;pressure;altitude;pressure_sealevel;temperature;humidity
8047;BME280;67150;42.516;23.358;2023-03-16T00:01:31;87370.59;;;7.03;60.49
8047;BME280;67150;42.516;23.358;2023-03-16T00:04:18;87375.28;;;6.97;60.77
8047;BME280;67150;42.516;23.358;2023-03-16T00:07:06;87380.97;;;6.99;60.80
8047;BME280;67150;42.516;23.358;2023-03-16T00:09:52;87378.69;;;6.96;61.08
8047;BME280;67150;42.516;23.358;2023-03-16T00:12:38;87381.41;;;7.04;60.81
8047;BME280;67150;42.516;23.358;2023-03-16T00:15:26;87385.06;;;7.00;60.95
8047;BME280;67150;42.516;23.358;2023-03-16T00:18:12;87378.22;;;7.02;60.87
8047;BME280;67150;42.516;23.358;2023-03-16T00:21:01;87382.88;;;7.06;60.75
8047;BME280;67150;42.516;23.358;2023-03-16T00:23:46;87385.97;;;6.99;60.44
8047;BME280;67150;42.516;23.358;2023-03-16T00:26:32;87384.97;;;7.01;60.33
8047;BME280;67150;42.516;23.358;2023-03-16T00:29:18;87391.09;;;6.97;60.78
8047;BME280;67150;42.516;23.358;2023-03-16T00:32:06;87392.81;;;6.97;60.80
8047;BME280;67150;42.516;23.358;2023-03-16T00:34:52;87388.69;;;6.96;60.76
8047;BME280;67150;42.516;23.358;2023-03-16T00:37:40;87396.47;;;6.93;60.63
8047;BME280;67150;42.516;23.358;2023-03-16T00:40:27;87398.97;;;6.93;60.61
8047;BME280;67150;42.516;23.358;2023-03-16T00:43:14;87402.03;;;6.96;60.69
8047;BME280;67150;42.516;23.358;2023-03-16T00:46:01;87403.50;;;6.99;60.29
8047;BME280;67150;42.516;23.358;2023-03-16T00:48:49;87400.22;;;6.98;60.30
8047;BME280;67150;42.516;23.358;2023-03-16T00:51:36;87397.38;;;6.92;60.68
8047;BME280;67150;42.516;23.358;2023-03-16T00:54:23;87403.72;;;6.96;60.54
8047;BME280;67150;42.516;23.358;2023-03-16T00:57:10;87404.00;;;6.93;60.61
8047;BME280;67150;42.516;23.358;2023-03-16T00:59:57;87406.22;;;6.96;60.55
8047;BME280;67150;42.516;23.358;2023-03-16T01:02:45;87403.06;;;6.94;60.76
8047;BME280;67150;42.516;23.358;2023-03-16T01:05:31;87405.47;;;6.95;60.60
8047;BME280;67150;42.516;23.358;2023-03-16T01:08:17;87403.63;;;6.97;60.63
8047;BME280;67150;42.516;23.358;2023-03-16T01:11:08;87406.38;;;6.94;60.64
8047;BME280;67150;42.516;23.358;2023-03-16T01:13:55;87401.59;;;6.91;60.48
8047;BME280;67150;42.516;23.358;2023-03-16T01:16:40;87400.69;;;6.92;60.63
8047;BME280;67150;42.516;23.358;2023-03-16T01:19:29;87402.38;;;6.92;60.62
8047;BME280;67150;42.516;23.358;2023-03-16T01:22:17;87409.44;;;6.98;60.52
8047;BME280;67150;42.516;23.358;2023-03-16T01:25:03;87408.72;;;6.96;60.61
8047;BME280;67150;42.516;23.358;2023-03-16T01:27:51;87408.53;;;6.88;60.80
8047;BME280;67150;42.516;23.358;2023-03-16T01:30:38;87401.81;;;6.88;60.40
8047;BME280;67150;42.516;23.358;2023-03-16T01:33:26;87415.13;;;6.89;60.55
8047;BME280;67150;42.516;23.358;2023-03-16T01:36:14;87411.72;;;6.90;60.44
8047;BME280;67150;42.516;23.358;2023-03-16T01:39:00;87408.53;;;6.88;60.49
8047;BME280;67150;42.516;23.358;2023-03-16T01:41:46;87409.22;;;6.90;60.56
8047;BME280;67150;42.516;23.358;2023-03-16T01:44:52;87408.44;;;6.89;60.44
8047;BME280;67150;42.516;23.358;2023-03-16T01:47:39;87412.97;;;6.84;60.58
8047;BME280;67150;42.516;23.358;2023-03-16T01:50:25;87412.63;;;6.89;60.51
8047;BME280;67150;42.516;23.358;2023-03-16T01:53:11;87422.88;;;6.86;60.52
8047;BME280;67150;42.516;23.358;2023-03-16T01:55:57;87420.59;;;6.83;60.46
8047;BME280;67150;42.516;23.358;2023-03-16T01:58:45;87421.75;;;6.90;60.29
8047;BME280;67150;42.516;23.358;2023-03-16T02:01:33;87425.72;;;6.81;60.83
8047;BME280;67150;42.516;23.358;2023-03-16T02:04:28;87424.38;;;6.77;60.41
8047;BME280;67150;42.516;23.358;2023-03-16T02:07:21;87434.97;;;6.81;60.58
8047;BME280;67150;42.516;23.358;2023-03-16T02:10:09;87421.66;;;6.80;60.28
8047;BME280;67150;42.516;23.358;2023-03-16T02:12:55;87434.50;;;6.87;60.25
8047;BME280;67150;42.516;23.358;2023-03-16T02:15:41;87441.44;;;6.83;60.15
8047;BME280;67150;42.516;23.358;2023-03-16T02:18:29;87440.63;;;6.83;60.51
8047;BME280;67150;42.516;23.358;2023-03-16T02:21:18;87447.47;;;6.81;60.33
8047;BME280;67150;42.516;23.358;2023-03-16T02:24:06;87448.16;;;6.83;60.09
8047;BME280;67150;42.516;23.358;2023-03-16T02:26:54;87448.50;;;6.78;60.31
8047;BME280;67150;42.516;23.358;2023-03-16T02:30:00;87454.06;;;6.82;60.22
8047;BME280;67150;42.516;23.358;2023-03-16T02:32:49;87452.13;;;6.74;60.36
8047;BME280;67150;42.516;23.358;2023-03-16T02:35:36;87452.34;;;6.82;60.47
8047;BME280;67150;42.516;23.358;2023-03-16T02:38:23;87456.78;;;6.78;60.37
8047;BME280;67150;42.516;23.358;2023-03-16T02:41:11;87460.88;;;6.80;60.06
8047;BME280;67150;42.516;23.358;2023-03-16T02:44:01;87456.00;;;6.78;60.34
8047;BME280;67150;42.516;23.358;2023-03-16T02:46:51;87457.72;;;6.78;60.29
8047;BME280;67150;42.516;23.358;2023-03-16T02:49:41;87462.81;;;6.76;60.38
8047;BME280;67150;42.516;23.358;2023-03-16T02:52:28;87464.19;;;6.80;60.60
8047;BME280;67150;42.516;23.358;2023-03-16T02:55:13;87461.78;;;6.78;60.10
8047;BME280;67150;42.516;23.358;2023-03-16T02:57:59;87465.66;;;6.83;60.01
8047;BME280;67150;42.516;23.358;2023-03-16T03:00:45;87461.69;;;6.80;60.29
8047;BME280;67150;42.516;23.358;2023-03-16T03:03:33;87466.56;;;6.82;60.04
8047;BME280;67150;42.516;23.358;2023-03-16T03:06:18;87469.44;;;6.77;60.51
8047;BME280;67150;42.516;23.358;2023-03-16T03:09:06;87468.84;;;6.73;60.62
8047;BME280;67150;42.516;23.358;2023-03-16T03:11:54;87472.59;;;6.79;60.08
8047;BME280;67150;42.516;23.358;2023-03-16T03:14:40;87477.03;;;6.75;60.34
8047;BME280;67150;42.516;23.358;2023-03-16T03:17:27;87470.47;;;6.74;60.01
8047;BME280;67150;42.516;23.358;2023-03-16T03:20:15;87484.09;;;6.70;60.14
8047;BME280;67150;42.516;23.358;2023-03-16T03:23:02;87479.53;;;6.75;60.40
8047;BME280;67150;42.516;23.358;2023-03-16T03:25:48;87485.56;;;6.73;60.16
8047;BME280;67150;42.516;23.358;2023-03-16T03:28:34;87485.56;;;6.73;60.41
8047;BME280;67150;42.516;23.358;2023-03-16T03:31:21;87489.34;;;6.67;60.22
8047;BME280;67150;42.516;23.358;2023-03-16T03:34:07;87489.78;;;6.72;60.29
8047;BME280;67150;42.516;23.358;2023-03-16T03:36:55;87491.59;;;6.70;60.34
8047;BME280;67150;42.516;23.358;2023-03-16T03:39:40;87492.28;;;6.72;60.01
8047;BME280;67150;42.516;23.358;2023-03-16T03:42:26;87500.50;;;6.74;60.24
8047;BME280;67150;42.516;23.358;2023-03-16T03:45:13;87500.59;;;6.73;60.21
8047;BME280;67150;42.516;23.358;2023-03-16T03:47:59;87501.63;;;6.70;60.39
8047;BME280;67150;42.516;23.358;2023-03-16T03:50:45;87501.75;;;6.69;59.98
8047;BME280;67150;42.516;23.358;2023-03-16T03:53:33;87504.03;;;6.72;60.37
8047;BME280;67150;42.516;23.358;2023-03-16T03:56:19;87516.63;;;6.70;60.03
8047;BME280;67150;42.516;23.358;2023-03-16T03:59:04;87519.16;;;6.70;60.32
8047;BME280;67150;42.516;23.358;2023-03-16T04:01:50;87517.31;;;6.72;60.10
8047;BME280;67150;42.516;23.358;2023-03-16T04:04:37;87520.25;;;6.66;60.38
8047;BME280;67150;42.516;23.358;2023-03-16T04:07:23;87515.97;;;6.68;59.99
8047;BME280;67150;42.516;23.358;2023-03-16T04:10:11;87521.41;;;6.73;59.81
8047;BME280;67150;42.516;23.358;2023-03-16T04:12:58;87522.09;;;6.64;60.10
8047;BME280;67150;42.516;23.358;2023-03-16T04:15:44;87519.59;;;6.64;59.92
8047;BME280;67150;42.516;23.358;2023-03-16T04:18:31;87526.44;;;6.62;59.94
8047;BME280;67150;42.516;23.358;2023-03-16T04:21:22;87519.81;;;6.61;60.11
8047;BME280;67150;42.516;23.358;2023-03-16T04:24:08;87527.22;;;6.63;60.33
8047;BME280;67150;42.516;23.358;2023-03-16T04:26:55;87531.22;;;6.65;60.08
8047;BME280;67150;42.516;23.358;2023-03-16T04:29:40;87535.41;;;6.65;59.91
8047;BME280;67150;42.516;23.358;2023-03-16T04:32:26;87533.00;;;6.63;60.18
8047;BME280;67150;42.516;23.358;2023-03-16T04:35:13;87541.44;;;6.62;59.81
8047;BME280;67150;42.516;23.358;2023-03-16T04:38:00;87545.41;;;6.65;60.09
8047;BME280;67150;42.516;23.358;2023-03-16T04:40:46;87551.44;;;6.62;60.15
8047;BME280;67150;42.516;23.358;2023-03-16T04:43:33;87549.03;;;6.61;60.16
8047;BME280;67150;42.516;23.358;2023-03-16T04:46:20;87560.66;;;6.62;60.22
8047;BME280;67150;42.516;23.358;2023-03-16T04:49:05;87559.63;;;6.64;60.26
8047;BME280;67150;42.516;23.358;2023-03-16T04:51:52;87567.94;;;6.65;59.70
8047;BME280;67150;42.516;23.358;2023-03-16T04:54:39;87566.47;;;6.62;60.20
8047;BME280;67150;42.516;23.358;2023-03-16T04:57:24;87569.66;;;6.64;59.90
8047;BME280;67150;42.516;23.358;2023-03-16T05:00:13;87573.28;;;6.60;60.05
8047;BME280;67150;42.516;23.358;2023-03-16T05:03:02;87572.28;;;6.63;59.96
8047;BME280;67150;42.516;23.358;2023-03-16T05:05:48;87574.28;;;6.58;59.73
8047;BME280;67150;42.516;23.358;2023-03-16T05:08:34;87584.06;;;6.61;59.78
8047;BME280;67150;42.516;23.358;2023-03-16T05:11:20;87587.59;;;6.58;59.89
8047;BME280;67150;42.516;23.358;2023-03-16T05:14:07;87580.91;;;6.59;60.09
8047;BME280;67150;42.516;23.358;2023-03-16T05:16:54;87582.81;;;6.55;59.98
8047;BME280;67150;42.516;23.358;2023-03-16T05:19:40;87581.47;;;6.51;60.15
8047;BME280;67150;42.516;23.358;2023-03-16T05:22:26;87583.75;;;6.54;60.26
8047;BME280;67150;42.516;23.358;2023-03-16T05:25:12;87591.03;;;6.57;60.07
8047;BME280;67150;42.516;23.358;2023-03-16T05:27:58;87596.03;;;6.57;59.67
8047;BME280;67150;42.516;23.358;2023-03-16T05:30:44;87591.81;;;6.58;59.76
8047;BME280;67150;42.516;23.358;2023-03-16T05:33:31;87603.06;;;6.52;59.79
8047;BME280;67150;42.516;23.358;2023-03-16T05:36:17;87607.97;;;6.54;59.68
8047;BME280;67150;42.516;23.358;2023-03-16T05:39:03;87611.50;;;6.51;59.82
8047;BME280;67150;42.516;23.358;2023-03-16T05:41:49;87612.38;;;6.50;60.03
8047;BME280;67150;42.516;23.358;2023-03-16T05:44:35;87609.88;;;6.50;60.03
8047;BME280;67150;42.516;23.358;2023-03-16T05:47:21;87616.59;;;6.50;59.71
8047;BME280;67150;42.516;23.358;2023-03-16T05:50:10;87620.09;;;6.47;59.74
8047;BME280;67150;42.516;23.358;2023-03-16T05:52:56;87613.28;;;6.49;59.91
8047;BME280;67150;42.516;23.358;2023-03-16T05:55:43;87623.50;;;6.46;59.76
8047;BME280;67150;42.516;23.358;2023-03-16T05:58:29;87620.31;;;6.44;60.32
8047;BME280;67150;42.516;23.358;2023-03-16T06:01:17;87620.91;;;6.48;60.24
8047;BME280;67150;42.516;23.358;2023-03-16T06:04:04;87626.94;;;6.45;59.84
8047;BME280;67150;42.516;23.358;2023-03-16T06:06:51;87632.03;;;6.44;60.22
8047;BME280;67150;42.516;23.358;2023-03-16T06:09:37;87631.22;;;6.43;60.20
8047;BME280;67150;42.516;23.358;2023-03-16T06:12:24;87641.25;;;6.43;60.32
8047;BME280;67150;42.516;23.358;2023-03-16T06:15:10;87639.88;;;6.39;60.38
8047;BME280;67150;42.516;23.358;2023-03-16T06:17:57;87648.28;;;6.38;59.98
8047;BME280;67150;42.516;23.358;2023-03-16T06:20:43;87655.78;;;6.38;60.41
8047;BME280;67150;42.516;23.358;2023-03-16T06:23:32;87656.59;;;6.39;59.97
8047;BME280;67150;42.516;23.358;2023-03-16T06:26:17;87655.91;;;6.37;59.87
8047;BME280;67150;42.516;23.358;2023-03-16T06:29:03;87663.28;;;6.38;60.10
8047;BME280;67150;42.516;23.358;2023-03-16T06:31:49;87662.06;;;6.44;59.71
8047;BME280;67150;42.516;23.358;2023-03-16T06:34:36;87670.00;;;6.38;60.23
8047;BME280;67150;42.516;23.358;2023-03-16T06:37:21;87678.50;;;6.35;60.18
8047;BME280;67150;42.516;23.358;2023-03-16T06:40:10;87682.50;;;6.38;59.80
8047;BME280;67150;42.516;23.358;2023-03-16T06:42:57;87681.47;;;6.40;59.78
8047;BME280;67150;42.516;23.358;2023-03-16T06:45:44;87687.28;;;6.41;59.73
8047;BME280;67150;42.516;23.358;2023-03-16T06:48:30;87688.44;;;6.37;59.77
8047;BME280;67150;42.516;23.358;2023-03-16T06:51:16;87693.44;;;6.37;59.80
8047;BME280;67150;42.516;23.358;2023-03-16T06:54:02;87693.72;;;6.32;59.85
8047;BME280;67150;42.516;23.358;2023-03-16T06:56:49;87695.34;;;6.33;60.27
8047;BME280;67150;42.516;23.358;2023-03-16T06:59:35;87697.28;;;6.41;59.92
8047;BME280;67150;42.516;23.358;2023-03-16T07:02:21;87699.53;;;6.33;60.15
8047;BME280;67150;42.516;23.358;2023-03-16T07:05:08;87700.44;;;6.32;60.22
8047;BME280;67150;42.516;23.358;2023-03-16T07:07:56;87700.34;;;6.33;60.05
8047;BME280;67150;42.516;23.358;2023-03-16T07:10:42;87704.34;;;6.36;60.20
8047;BME280;67150;42.516;23.358;2023-03-16T07:13:29;87703.53;;;6.35;60.29
8047;BME280;67150;42.516;23.358;2023-03-16T07:16:15;87708.75;;;6.32;60.41
8047;BME280;67150;42.516;23.358;2023-03-16T07:19:01;87709.63;;;6.31;60.32
8047;BME280;67150;42.516;23.358;2023-03-16T07:21:48;87716.47;;;6.29;60.33
8047;BME280;67150;42.516;23.358;2023-03-16T07:24:35;87726.25;;;6.32;60.49
8047;BME280;67150;42.516;23.358;2023-03-16T07:27:20;87728.06;;;6.30;60.05
8047;BME280;67150;42.516;23.358;2023-03-16T07:30:10;87727.38;;;6.28;60.41
8047;BME280;67150;42.516;23.358;2023-03-16T07:32:58;87729.09;;;6.28;60.23
8047;BME280;67150;42.516;23.358;2023-03-16T07:35:45;87727.38;;;6.28;60.23
8047;BME280;67150;42.516;23.358;2023-03-16T07:38:31;87728.97;;;6.29;60.34
8047;BME280;67150;42.516;23.358;2023-03-16T07:41:17;87740.56;;;6.30;60.33
8047;BME280;67150;42.516;23.358;2023-03-16T07:44:03;87735.56;;;6.30;60.17
8047;BME280;67150;42.516;23.358;2023-03-16T07:46:50;87746.59;;;6.28;60.25
8047;BME280;67150;42.516;23.358;2023-03-16T07:49:36;87739.91;;;6.28;60.19
8047;BME280;67150;42.516;23.358;2023-03-16T07:52:22;87745.66;;;6.29;60.13
8047;BME280;67150;42.516;23.358;2023-03-16T07:55:08;87748.97;;;6.29;60.48
8047;BME280;67150;42.516;23.358;2023-03-16T07:57:55;87755.88;;;6.26;60.29
8047;BME280;67150;42.516;23.358;2023-03-16T08:00:41;87760.69;;;6.29;60.42
8047;BME280;67150;42.516;23.358;2023-03-16T08:03:29;87762.69;;;6.24;60.49
8047;BME280;67150;42.516;23.358;2023-03-16T08:06:14;87762.81;;;6.22;60.29
8047;BME280;67150;42.516;23.358;2023-03-16T08:09:00;87764.53;;;6.22;60.60
8047;BME280;67150;42.516;23.358;2023-03-16T08:11:46;87767.50;;;6.27;60.20
8047;BME280;67150;42.516;23.358;2023-03-16T08:14:33;87768.38;;;6.26;60.42
8047;BME280;67150;42.516;23.358;2023-03-16T08:17:20;87775.81;;;6.27;60.10
8047;BME280;67150;42.516;23.358;2023-03-16T08:20:09;87772.63;;;6.25;60.31
8047;BME280;67150;42.516;23.358;2023-03-16T08:22:57;87751.25;;;6.08;60.38
8047;BME280;67150;42.516;23.358;2023-03-16T08:25:43;87778.25;;;6.16;60.34
8047;BME280;67150;42.516;23.358;2023-03-16T08:28:29;87777.63;;;6.25;60.37
8047;BME280;67150;42.516;23.358;2023-03-16T08:31:15;87781.00;;;6.24;60.30
8047;BME280;67150;42.516;23.358;2023-03-16T08:34:01;87776.22;;;6.21;60.60
8047;BME280;67150;42.516;23.358;2023-03-16T08:36:49;87771.44;;;6.18;60.39
8047;BME280;67150;42.516;23.358;2023-03-16T08:39:34;87778.72;;;6.21;60.33
8047;BME280;67150;42.516;23.358;2023-03-16T08:42:23;87791.44;;;6.18;60.63
8047;BME280;67150;42.516;23.358;2023-03-16T08:45:10;87791.03;;;6.24;60.26
8047;BME280;67150;42.516;23.358;2023-03-16T08:47:56;87794.41;;;6.23;60.48
8047;BME280;67150;42.516;23.358;2023-03-16T08:50:44;87795.22;;;6.11;60.64
8047;BME280;67150;42.516;23.358;2023-03-16T08:53:31;87800.63;;;6.17;60.60
8047;BME280;67150;42.516;23.358;2023-03-16T08:56:17;87798.81;;;6.19;60.43
8047;BME280;67150;42.516;23.358;2023-03-16T08:59:03;87788.53;;;6.11;60.75
8047;BME280;67150;42.516;23.358;2023-03-16T09:01:48;87803.25;;;6.16;60.45
8047;BME280;67150;42.516;23.358;2023-03-16T09:04:34;87809.63;;;6.20;60.25
8047;BME280;67150;42.516;23.358;2023-03-16T09:07:20;87809.63;;;6.20;60.66
8047;BME280;67150;42.516;23.358;2023-03-16T09:10:09;87807.03;;;6.22;60.54
8047;BME280;67150;42.516;23.358;2023-03-16T09:13:01;87804.16;;;6.15;60.43
8047;BME280;67150;42.516;23.358;2023-03-16T09:15:49;87805.25;;;6.11;60.55
8047;BME280;67150;42.516;23.358;2023-03-16T09:18:35;87815.63;;;6.17;60.65
8047;BME280;67150;42.516;23.358;2023-03-16T09:21:21;87818.25;;;6.16;60.58
8047;BME280;67150;42.516;23.358;2023-03-16T09:24:07;87803.88;;;6.07;60.37
8047;BME280;67150;42.516;23.358;2023-03-16T09:26:54;87814.16;;;6.15;60.98
8047;BME280;67150;42.516;23.358;2023-03-16T09:29:40;87820.63;;;6.17;60.62
8047;BME280;67150;42.516;23.358;2023-03-16T09:32:26;87816.66;;;6.15;60.42
8047;BME280;67150;42.516;23.358;2023-03-16T09:35:13;87817.66;;;6.12;60.50
8047;BME280;67150;42.516;23.358;2023-03-16T09:37:59;87819.16;;;6.15;60.57
8047;BME280;67150;42.516;23.358;2023-03-16T09:40:47;87821.44;;;6.18;60.39
8047;BME280;67150;42.516;23.358;2023-03-16T09:44:02;87823.25;;;6.16;60.46
8047;BME280;67150;42.516;23.358;2023-03-16T09:46:52;87829.03;;;6.16;60.51
8047;BME280;67150;42.516;23.358;2023-03-16T09:49:43;87829.25;;;6.13;60.67
8047;BME280;67150;42.516;23.358;2023-03-16T09:52:36;87827.06;;;6.09;60.53
8047;BME280;67150;42.516;23.358;2023-03-16T09:55:26;87825.75;;;6.16;60.65
8047;BME280;67150;42.516;23.358;2023-03-16T09:58:16;87830.97;;;6.13;60.75
8047;BME280;67150;42.516;23.358;2023-03-16T10:01:10;87832.34;;;6.17;60.67
8047;BME280;67150;42.516;23.358;2023-03-16T10:04:07;87838.25;;;6.16;60.59
8047;BME280;67150;42.516;23.358;2023-03-16T10:07:01;87841.66;;;6.15;60.42
8047;BME280;67150;42.516;23.358;2023-03-16T10:09:55;87832.94;;;6.08;60.56
8047;BME280;67150;42.516;23.358;2023-03-16T10:12:44;87839.69;;;6.07;60.88
8047;BME280;67150;42.516;23.358;2023-03-16T10:15:34;87837.06;;;6.09;60.57
8047;BME280;67150;42.516;23.358;2023-03-16T10:18:26;87847.06;;;6.09;61.03
8047;BME280;67150;42.516;23.358;2023-03-16T10:21:15;87837.94;;;6.08;60.65
8047;BME280;67150;42.516;23.358;2023-03-16T10:24:02;87842.25;;;6.06;60.60
8047;BME280;67150;42.516;23.358;2023-03-16T10:26:53;87851.47;;;6.05;60.69
8047;BME280;67150;42.516;23.358;2023-03-16T10:29:43;87847.19;;;6.07;60.61
8047;BME280;67150;42.516;23.358;2023-03-16T10:32:31;87842.19;;;6.07;60.79
8047;BME280;67150;42.516;23.358;2023-03-16T10:35:30;87852.25;;;6.06;60.92
8047;BME280;67150;42.516;23.358;2023-03-16T10:38:39;87853.88;;;6.07;60.76
8047;BME280;67150;42.516;23.358;2023-03-16T10:41:28;87858.97;;;6.05;60.92
8047;BME280;67150;42.516;23.358;2023-03-16T10:44:15;87856.38;;;6.07;60.61
8047;BME280;67150;42.516;23.358;2023-03-16T10:47:06;87848.34;;;6.02;60.75
8047;BME280;67150;42.516;23.358;2023-03-16T10:49:52;87854.56;;;6.09;60.66
8047;BME280;67150;42.516;23.358;2023-03-16T10:52:42;87849.06;;;6.04;60.82
8047;BME280;67150;42.516;23.358;2023-03-16T10:55:39;87847.47;;;6.03;61.04
8047;BME280;67150;42.516;23.358;2023-03-16T10:58:29;87853.28;;;6.03;60.82
8047;BME280;67150;42.516;23.358;2023-03-16T11:01:18;87854.16;;;6.02;60.83
8047;BME280;67150;42.516;23.358;2023-03-16T11:04:12;87852.47;;;6.03;61.09
8047;BME280;67150;42.516;23.358;2023-03-16T11:06:59;87852.66;;;6.00;60.81
8047;BME280;67150;42.516;23.358;2023-03-16T11:09:47;87850.16;;;6.00;60.88
8047;BME280;67150;42.516;23.358;2023-03-16T11:12:34;87856.56;;;6.04;60.92
8047;BME280;67150;42.516;23.358;2023-03-16T11:15:20;87849.97;;;6.03;60.71
8047;BME280;67150;42.516;23.358;2023-03-16T11:18:08;87854.28;;;6.01;60.78
8047;BME280;67150;42.516;23.358;2023-03-16T11:21:06;87854.28;;;6.01;60.94
8047;BME280;67150;42.516;23.358;2023-03-16T11:23:54;87849.16;;;6.02;60.70
8047;BME280;67150;42.516;23.358;2023-03-16T11:26:43;87850.16;;;6.00;60.56
8047;BME280;67150;42.516;23.358;2023-03-16T11:29:42;87864.47;;;5.98;61.00
8047;BME280;67150;42.516;23.358;2023-03-16T11:32:35;87852.06;;;5.96;61.12
8047;BME280;67150;42.516;23.358;2023-03-16T11:35:27;87851.50;;;5.93;61.31
8047;BME280;67150;42.516;23.358;2023-03-16T11:38:18;87847.66;;;6.00;60.62
8047;BME280;67150;42.516;23.358;2023-03-16T11:41:09;87846.97;;;5.98;60.97
8047;BME280;67150;42.516;23.358;2023-03-16T11:44:03;87854.00;;;5.93;60.78
8047;BME280;67150;42.516;23.358;2023-03-16T11:47:02;87849.88;;;5.92;60.77
8047;BME280;67150;42.516;23.358;2023-03-16T11:49:56;87847.97;;;5.95;60.66
8047;BME280;67150;42.516;23.358;2023-03-16T11:52:53;87848.69;;;5.97;60.62
8047;BME280;67150;42.516;23.358;2023-03-16T11:55:49;87854.75;;;5.93;61.25
8047;BME280;67150;42.516;23.358;2023-03-16T11:58:50;87851.69;;;5.90;61.03
8047;BME280;67150;42.516;23.358;2023-03-16T12:01:57;87851.50;;;5.93;60.87
8047;BME280;67150;42.516;23.358;2023-03-16T12:04:57;87850.88;;;5.89;61.00
8047;BME280;67150;42.516;23.358;2023-03-16T12:07:58;87854.88;;;5.92;60.71
8047;BME280;67150;42.516;23.358;2023-03-16T12:10:54;87851.38;;;5.94;60.99
8047;BME280;67150;42.516;23.358;2023-03-16T12:13:56;87853.28;;;5.91;61.08
8047;BME280;67150;42.516;23.358;2023-03-16T12:16:53;87849.97;;;5.90;61.17
8047;BME280;67150;42.516;23.358;2023-03-16T12:19:44;87852.47;;;5.90;60.91
8047;BME280;67150;42.516;23.358;2023-03-16T12:22:36;87855.28;;;5.86;60.97
8047;BME280;67150;42.516;23.358;2023-03-16T12:25:26;87856.88;;;5.87;60.92
8047;BME280;67150;42.516;23.358;2023-03-16T12:28:20;87860.78;;;5.91;61.23
8047;BME280;67150;42.516;23.358;2023-03-16T12:31:10;87859.69;;;5.95;61.05
8047;BME280;67150;42.516;23.358;2023-03-16T12:34:08;87860.88;;;5.89;60.84
8047;BME280;67150;42.516;23.358;2023-03-16T12:37:09;87858.63;;;5.85;61.22
8047;BME280;67150;42.516;23.358;2023-03-16T12:40:02;87865.16;;;5.87;61.00
8047;BME280;67150;42.516;23.358;2023-03-16T12:43:03;87861.88;;;5.87;60.83
8047;BME280;67150;42.516;23.358;2023-03-16T12:45:57;87866.88;;;5.87;61.04
8047;BME280;67150;42.516;23.358;2023-03-16T12:48:48;87866.13;;;5.85;61.35
8047;BME280;67150;42.516;23.358;2023-03-16T12:51:38;87869.56;;;5.84;61.17
8047;BME280;67150;42.516;23.358;2023-03-16T12:54:25;87868.75;;;5.83;61.14
8047;BME280;67150;42.516;23.358;2023-03-16T12:57:15;87872.06;;;5.84;61.15
8047;BME280;67150;42.516;23.358;2023-03-16T13:00:03;87871.13;;;5.85;61.11
8047;BME280;67150;42.516;23.358;2023-03-16T13:02:53;87873.47;;;5.88;60.79
8047;BME280;67150;42.516;23.358;2023-03-16T13:05:44;87874.47;;;5.85;61.16
8047;BME280;67150;42.516;23.358;2023-03-16T13:08:43;87857.13;;;5.70;61.47
8047;BME280;67150;42.516;23.358;2023-03-16T13:11:41;87884.38;;;5.87;60.88
8047;BME280;67150;42.516;23.358;2023-03-16T13:14:36;87885.28;;;5.86;61.19
8047;BME280;67150;42.516;23.358;2023-03-16T13:17:26;87892.66;;;5.87;60.95
8047;BME280;67150;42.516;23.358;2023-03-16T13:20:27;87882.25;;;5.81;61.11
8047;BME280;67150;42.516;23.358;2023-03-16T13:23:21;87885.63;;;5.80;61.25
8047;BME280;67150;42.516;23.358;2023-03-16T13:26:14;87891.13;;;5.85;61.40
8047;BME280;67150;42.516;23.358;2023-03-16T13:29:06;87885.63;;;5.80;61.26
8047;BME280;67150;42.516;23.358;2023-03-16T13:32:06;87897.25;;;5.81;61.36
8047;BME280;67150;42.516;23.358;2023-03-16T13:34:56;87900.28;;;5.86;61.29
8047;BME280;67150;42.516;23.358;2023-03-16T13:37:45;87900.56;;;5.81;61.13
8047;BME280;67150;42.516;23.358;2023-03-16T13:40:32;87896.44;;;5.80;61.04
8047;BME280;67150;42.516;23.358;2023-03-16T13:43:22;87895.84;;;5.77;61.40
8047;BME280;67150;42.516;23.358;2023-03-16T13:46:15;87903.25;;;5.78;61.29
8047;BME280;67150;42.516;23.358;2023-03-16T13:49:03;87906.53;;;5.79;61.09
8047;BME280;67150;42.516;23.358;2023-03-16T13:51:49;87910.63;;;5.80;61.31
8047;BME280;67150;42.516;23.358;2023-03-16T13:54:35;87910.94;;;5.75;61.25
8047;BME280;67150;42.516;23.358;2023-03-16T13:57:23;87901.84;;;5.74;61.38
8047;BME280;67150;42.516;23.358;2023-03-16T14:00:16;87920.75;;;5.78;61.31
8047;BME280;67150;42.516;23.358;2023-03-16T14:03:12;87914.03;;;5.79;61.21
8047;BME280;67150;42.516;23.358;2023-03-16T14:05:59;87919.75;;;5.81;60.98
8047;BME280;67150;42.516;23.358;2023-03-16T14:08:50;87921.53;;;5.79;61.09
8047;BME280;67150;42.516;23.358;2023-03-16T14:11:37;87927.25;;;5.81;61.43
8047;BME280;67150;42.516;23.358;2023-03-16T14:14:27;87920.13;;;5.75;61.64
8047;BME280;67150;42.516;23.358;2023-03-16T14:17:16;87923.25;;;5.78;61.43
8047;BME280;67150;42.516;23.358;2023-03-16T14:20:03;87923.13;;;5.80;61.59
8047;BME280;67150;42.516;23.358;2023-03-16T14:22:52;87924.75;;;5.81;61.13
8047;BME280;67150;42.516;23.358;2023-03-16T14:25:38;87923.81;;;5.82;61.18
8047;BME280;67150;42.516;23.358;2023-03-16T14:28:29;87930.75;;;5.78;61.19
8047;BME280;67150;42.516;23.358;2023-03-16T14:31:18;87932.53;;;5.76;61.40
8047;BME280;67150;42.516;23.358;2023-03-16T14:34:19;87929.22;;;5.76;61.29
8047;BME280;67150;42.516;23.358;2023-03-16T14:37:07;87934.41;;;5.73;61.71
8047;BME280;67150;42.516;23.358;2023-03-16T14:39:59;87938.25;;;5.78;61.38
8047;BME280;67150;42.516;23.358;2023-03-16T14:42:51;87936.03;;;5.74;61.21
8047;BME280;67150;42.516;23.358;2023-03-16T14:45:37;87939.31;;;5.74;61.84
8047;BME280;67150;42.516;23.358;2023-03-16T14:48:24;87939.53;;;5.71;61.28
8047;BME280;67150;42.516;23.358;2023-03-16T14:51:12;87932.81;;;5.72;61.40
8047;BME280;67150;42.516;23.358;2023-03-16T14:53:59;87941.81;;;5.74;61.46
8047;BME280;67150;42.516;23.358;2023-03-16T14:56:48;87947.63;;;5.75;61.72
8047;BME280;67150;42.516;23.358;2023-03-16T14:59:34;87947.72;;;5.73;61.79
8047;BME280;67150;42.516;23.358;2023-03-16T15:02:22;87955.22;;;5.73;61.36
8047;BME280;67150;42.516;23.358;2023-03-16T15:05:09;87955.81;;;5.77;61.31